Sterling, Pennsylvania
Current Conditions -  °F | °C
As of 9:13 AM on Monday 22 Dec 2014 (Local Time) from KMPO Reporting Station
Haze Haze  
Wind Chill: 22°   Ceiling: 800
Heat Index: 29°   Visibility: 6mi
Dew Point: 27°   Wind: 7mph
Humidity: 92%   Direction: 140°SE
Pressure: 30.23"   Gusts: NA
Location:  41.34°N, 75.39°W
Report Text: KMPO 221413Z AUTO 14006KT 6SM BR SCT002 OVC008 M02/M03 A3023 RMK AO2 T10171028
Loading
Personal Weather Stations






























Interactive Weather Map New forecast layout! Learn more

10-Day Weather Forecast

Advertisements
Track Severe Weather on mobile